createdAt,value
2022-11-18T00:00:41.960Z,0.16
2022-11-18T00:03:10.763Z,-0.08
2022-11-18T00:05:39.693Z,1.00
2022-11-18T00:08:10.001Z,0.35
2022-11-18T00:10:39.514Z,0.13
2022-11-18T00:13:25.846Z,1.59
2022-11-18T00:16:02.787Z,1.72
2022-11-18T00:18:31.825Z,0.55
2022-11-18T00:21:03.335Z,1.23
2022-11-18T00:23:33.871Z,1.73
2022-11-18T00:26:07.771Z,2.20
2022-11-18T00:28:37.007Z,1.28
2022-11-18T00:31:09.077Z,0.60
2022-11-18T00:33:37.943Z,0.44
2022-11-18T00:36:09.885Z,0.40
2022-11-18T00:38:40.223Z,0.17
2022-11-18T00:41:12.902Z,1.13
2022-11-18T00:43:41.491Z,0.50
2022-11-18T00:46:13.145Z,0.54
2022-11-18T00:48:42.074Z,0.84
2022-11-18T00:51:15.000Z,0.44
2022-11-18T00:53:45.639Z,1.08
2022-11-18T00:56:14.493Z,0.17
2022-11-18T00:58:43.039Z,0.26
2022-11-18T01:01:11.904Z,0.60
2022-11-18T01:03:40.502Z,0.08
2022-11-18T01:06:09.943Z,-0.08
2022-11-18T01:08:38.583Z,0.65
2022-11-18T01:11:22.776Z,0.24
2022-11-18T01:13:51.844Z,1.65
2022-11-18T01:16:22.297Z,1.73
2022-11-18T01:18:50.974Z,0.62
2022-11-18T01:21:20.171Z,0.68
2022-11-18T01:23:49.270Z,2.44
2022-11-18T01:26:19.844Z,1.45
2022-11-18T01:28:48.433Z,0.97
2022-11-18T01:31:20.547Z,1.39
2022-11-18T01:33:49.095Z,1.62
2022-11-18T01:36:21.327Z,1.57
2022-11-18T01:38:52.036Z,1.85
2022-11-18T01:41:27.169Z,0.71
2022-11-18T01:43:59.377Z,1.56
2022-11-18T01:46:31.291Z,1.26
2022-11-18T01:49:05.374Z,0.28
2022-11-18T01:51:40.067Z,0.01
2022-11-18T01:54:16.569Z,0.96
2022-11-18T01:56:53.644Z,0.78
2022-11-18T01:59:27.903Z,0.66
2022-11-18T02:01:59.784Z,-0.04
2022-11-18T02:04:29.052Z,-0.05
2022-11-18T02:06:58.961Z,-0.25
2022-11-18T02:09:27.594Z,0.91
2022-11-18T02:11:58.255Z,0.69
2022-11-18T02:14:31.377Z,0.58
2022-11-18T02:17:11.974Z,0.06
2022-11-18T02:20:08.382Z,-0.17
2022-11-18T02:23:07.511Z,-0.15
2022-11-18T02:25:57.441Z,-0.24
2022-11-18T02:28:50.879Z,-0.27
2022-11-18T02:31:28.951Z,-0.17
2022-11-18T02:34:08.690Z,0.07
2022-11-18T02:36:49.332Z,-0.07
2022-11-18T02:39:24.979Z,-0.15
2022-11-18T02:41:57.074Z,-0.18
2022-11-18T02:44:30.766Z,-0.16
2022-11-18T02:47:07.318Z,-0.16
2022-11-18T02:49:43.373Z,-0.02
2022-11-18T02:52:16.286Z,0.64
2022-11-18T02:54:49.114Z,0.96
2022-11-18T02:57:20.492Z,0.50
2022-11-18T02:59:50.879Z,0.31
2022-11-18T03:02:21.360Z,0.28
2022-11-18T03:04:56.383Z,1.27
2022-11-18T03:07:33.129Z,1.19
2022-11-18T03:10:04.451Z,0.90
2022-11-18T03:12:42.945Z,1.22
2022-11-18T03:15:24.892Z,1.29
2022-11-18T03:18:06.795Z,1.37
2022-11-18T03:20:39.972Z,1.73
2022-11-18T03:23:15.739Z,0.49
2022-11-18T03:25:52.060Z,1.68
2022-11-18T03:28:29.087Z,1.32
2022-11-18T03:31:08.536Z,2.10
2022-11-18T03:33:45.052Z,2.03
2022-11-18T03:40:54.747Z,0.80
2022-11-18T03:43:28.237Z,0.79
2022-11-18T03:46:08.231Z,1.38
2022-11-18T03:48:45.690Z,1.21
2022-11-18T03:51:21.816Z,1.54
2022-11-18T03:53:59.240Z,1.43
2022-11-18T03:56:36.996Z,1.33
2022-11-18T03:59:15.347Z,0.96
2022-11-18T04:01:53.751Z,0.03
2022-11-18T04:04:23.696Z,1.42
2022-11-18T04:07:04.598Z,0.84
2022-11-18T04:09:44.014Z,0.59
2022-11-18T04:12:18.765Z,1.71
2022-11-18T04:19:20.724Z,1.03
2022-11-18T04:21:50.775Z,0.91
2022-11-18T04:24:19.645Z,1.85
2022-11-18T04:26:48.231Z,1.80
2022-11-18T04:29:17.342Z,0.36
2022-11-18T04:31:46.116Z,0.64
2022-11-18T04:34:15.097Z,0.79
2022-11-18T04:36:45.200Z,0.65
2022-11-18T04:39:14.246Z,0.79
2022-11-18T04:41:58.042Z,1.43
2022-11-18T04:44:29.755Z,1.25
2022-11-18T04:47:01.367Z,1.67
2022-11-18T04:49:30.833Z,1.43
2022-11-18T04:52:01.835Z,0.25
2022-11-18T04:54:30.822Z,0.91
2022-11-18T04:56:59.474Z,0.15
2022-11-18T04:59:30.842Z,0.15
2022-11-18T05:02:01.101Z,1.14
2022-11-18T05:04:34.139Z,1.54
2022-11-18T05:07:06.168Z,0.87
2022-11-18T05:09:35.746Z,0.53
2022-11-18T05:12:22.111Z,1.39
2022-11-18T05:14:51.250Z,0.42
2022-11-18T05:17:20.804Z,0.11
2022-11-18T05:19:49.664Z,0.37
2022-11-18T05:22:19.734Z,1.17
2022-11-18T05:24:48.673Z,1.11
2022-11-18T05:27:18.437Z,1.39
2022-11-18T05:29:47.393Z,0.40
2022-11-18T05:32:15.974Z,-0.17
2022-11-18T05:34:44.890Z,1.25
2022-11-18T05:37:13.832Z,0.13
2022-11-18T05:39:44.042Z,0.31
2022-11-18T05:42:33.502Z,-0.28
2022-11-18T05:45:02.367Z,0.00
2022-11-18T05:52:02.837Z,1.35
2022-11-18T05:54:31.644Z,0.83
2022-11-18T05:57:01.916Z,1.10
2022-11-18T05:59:30.923Z,-0.22
2022-11-18T06:02:05.098Z,-0.16
2022-11-18T06:04:40.611Z,0.67
2022-11-18T06:07:15.439Z,-0.03
2022-11-18T06:09:49.499Z,0.63
2022-11-18T06:12:25.633Z,0.74
2022-11-18T06:14:59.512Z,1.11
2022-11-18T06:17:32.590Z,1.30
2022-11-18T06:24:34.547Z,0.31
2022-11-18T06:27:04.207Z,1.29
2022-11-18T06:29:34.515Z,0.25
2022-11-18T06:32:03.148Z,0.28
2022-11-18T06:34:35.568Z,-0.11
2022-11-18T06:37:14.917Z,-0.20
2022-11-18T06:39:44.055Z,0.11
2022-11-18T06:42:32.764Z,-0.40
2022-11-18T06:45:02.396Z,0.28
2022-11-18T06:47:31.216Z,-0.29
2022-11-18T06:50:00.118Z,-0.31
2022-11-18T06:52:29.242Z,-0.31
2022-11-18T06:54:58.098Z,0.34
2022-11-18T06:57:26.731Z,0.75
2022-11-18T07:00:01.683Z,0.16
2022-11-18T07:02:32.192Z,-0.25
2022-11-18T07:05:01.044Z,0.64
2022-11-18T07:07:29.691Z,0.28
2022-11-18T07:09:58.603Z,0.01
2022-11-18T07:12:27.140Z,-0.31
2022-11-18T07:14:55.987Z,0.27
2022-11-18T07:17:24.596Z,-0.20
2022-11-18T07:19:54.823Z,0.00
2022-11-18T07:22:23.512Z,0.58
2022-11-18T07:24:52.432Z,0.52
2022-11-18T07:27:20.991Z,-0.01
2022-11-18T07:29:49.860Z,0.31
2022-11-18T07:32:18.432Z,0.86
2022-11-18T07:34:47.336Z,0.18
2022-11-18T07:37:17.329Z,0.59
2022-11-18T07:39:46.343Z,0.55
2022-11-18T07:42:14.888Z,0.33
2022-11-18T07:44:43.707Z,1.00
2022-11-18T07:47:12.303Z,1.09
2022-11-18T07:49:41.159Z,0.42
2022-11-18T07:52:09.779Z,0.49
2022-11-18T07:54:39.967Z,0.73
2022-11-18T07:57:08.661Z,0.90
2022-11-18T07:59:37.517Z,1.69
2022-11-18T08:02:06.825Z,0.12
2022-11-18T08:04:38.156Z,0.35
2022-11-18T08:07:06.788Z,0.09
2022-11-18T08:14:09.255Z,0.59
2022-11-18T08:16:37.908Z,0.24
2022-11-18T08:19:06.731Z,0.59
2022-11-18T08:21:35.349Z,0.43
2022-11-18T08:24:04.323Z,0.83
2022-11-18T08:26:32.936Z,1.22
2022-11-18T08:29:01.839Z,0.25
2022-11-18T08:31:32.256Z,1.95
2022-11-18T08:34:03.900Z,1.54
2022-11-18T08:36:34.817Z,1.05
2022-11-18T08:39:07.469Z,0.91
2022-11-18T08:41:39.565Z,0.24
2022-11-18T08:44:12.805Z,0.57
2022-11-18T08:46:45.036Z,0.33
2022-11-18T08:49:14.000Z,1.34
2022-11-18T08:51:43.013Z,0.93
2022-11-18T08:54:11.851Z,0.92
2022-11-18T08:56:40.546Z,1.32
2022-11-18T08:59:09.734Z,0.41
2022-11-18T09:01:38.380Z,2.02
2022-11-18T09:04:09.180Z,1.80
2022-11-18T09:06:38.566Z,1.32
2022-11-18T09:09:08.494Z,1.00
2022-11-18T09:11:40.041Z,1.43
2022-11-18T09:18:41.452Z,1.34
2022-11-18T09:21:12.109Z,1.45
2022-11-18T09:23:40.678Z,1.41
2022-11-18T09:26:13.652Z,1.86
2022-11-18T09:28:42.695Z,1.24
2022-11-18T09:31:14.233Z,2.32
2022-11-18T09:33:43.522Z,2.62
2022-11-18T09:36:18.156Z,1.65
2022-11-18T09:38:51.659Z,2.17
2022-11-18T09:41:44.861Z,1.51
2022-11-18T09:44:39.663Z,2.15
2022-11-18T09:47:23.685Z,2.04
2022-11-18T09:49:53.492Z,0.71
2022-11-18T09:52:34.425Z,0.53
2022-11-18T09:55:13.486Z,0.92
2022-11-18T10:02:48.255Z,2.15
2022-11-18T10:05:20.481Z,2.23
2022-11-18T10:08:19.787Z,1.92
2022-11-18T10:11:01.801Z,1.41
2022-11-18T10:13:50.757Z,1.01
2022-11-18T10:16:33.215Z,0.90
2022-11-18T10:19:21.104Z,0.49
2022-11-18T10:22:11.807Z,1.47
2022-11-18T10:24:51.112Z,2.35
2022-11-18T10:27:21.810Z,1.37
2022-11-18T10:29:56.722Z,2.83
2022-11-18T10:32:25.868Z,2.21
2022-11-18T10:34:57.497Z,1.74
2022-11-18T10:40:29.099Z,1.71
2022-11-18T10:42:58.028Z,1.82
2022-11-18T10:45:30.296Z,2.07
2022-11-18T10:48:10.119Z,2.81
2022-11-18T10:50:41.176Z,2.94
2022-11-18T10:53:33.450Z,2.17
2022-11-18T10:56:08.385Z,2.45
2022-11-18T10:58:42.617Z,1.82
2022-11-18T11:01:24.323Z,1.91
2022-11-18T11:04:03.427Z,2.03
2022-11-18T11:06:38.016Z,1.54
2022-11-18T11:09:12.108Z,1.20
2022-11-18T11:11:55.962Z,0.81
2022-11-18T11:14:30.005Z,0.80
2022-11-18T11:17:06.013Z,0.84
2022-11-18T11:19:50.153Z,1.47
2022-11-18T11:30:18.705Z,1.56
2022-11-18T11:33:21.245Z,1.52
2022-11-18T11:36:09.465Z,2.59
2022-11-18T11:39:01.340Z,2.06
2022-11-18T11:41:47.037Z,1.28
2022-11-18T11:44:48.370Z,1.12
2022-11-18T11:47:50.732Z,0.85
2022-11-18T11:50:28.776Z,0.91
2022-11-18T11:53:18.461Z,1.24
2022-11-18T11:56:04.411Z,0.77
2022-11-18T12:03:35.355Z,0.87
2022-11-18T12:06:04.057Z,1.03
2022-11-18T12:08:34.290Z,0.79
2022-11-18T12:11:14.628Z,1.79
2022-11-18T12:13:55.954Z,2.34
2022-11-18T12:16:34.809Z,1.90
2022-11-18T12:19:13.296Z,2.32
2022-11-18T12:22:03.979Z,1.35
2022-11-18T12:24:36.961Z,1.16
2022-11-18T12:27:58.715Z,0.89
2022-11-18T12:30:27.860Z,1.28
2022-11-18T12:32:58.835Z,2.05
2022-11-18T12:35:37.458Z,2.24
2022-11-18T12:38:06.200Z,2.03
2022-11-18T12:40:45.940Z,2.24
2022-11-18T12:44:14.064Z,1.80
2022-11-18T12:46:55.376Z,2.36
2022-11-18T12:50:14.090Z,2.14
2022-11-18T12:52:56.859Z,2.60
2022-11-18T12:55:34.505Z,2.52
2022-11-18T12:58:03.489Z,1.59
2022-11-18T13:00:52.600Z,1.67
2022-11-18T13:03:30.549Z,0.83
2022-11-18T13:06:05.695Z,1.74
2022-11-18T13:08:36.565Z,1.72
2022-11-18T13:11:34.220Z,0.98
2022-11-18T13:14:24.191Z,2.14
2022-11-18T13:17:10.781Z,1.35
2022-11-18T13:19:39.682Z,2.08
2022-11-18T13:22:36.908Z,1.72
2022-11-18T13:25:22.726Z,2.06
2022-11-18T13:28:03.870Z,2.01
2022-11-18T13:30:37.218Z,1.45
2022-11-18T13:33:11.740Z,1.18
2022-11-18T13:35:42.273Z,2.17
2022-11-18T13:38:28.032Z,1.49
2022-11-18T13:41:15.816Z,1.54
2022-11-18T13:43:44.374Z,0.63
2022-11-18T13:46:20.612Z,0.78
2022-11-18T13:48:57.592Z,1.78
2022-11-18T13:51:27.517Z,2.56
2022-11-18T13:53:56.426Z,1.37
2022-11-18T13:56:35.164Z,0.70
2022-11-18T13:59:17.516Z,1.93
2022-11-18T14:06:27.156Z,1.52
2022-11-18T14:09:22.257Z,1.72
2022-11-18T14:12:03.939Z,1.71
2022-11-18T14:14:36.648Z,1.36
2022-11-18T14:17:23.023Z,1.48
2022-11-18T14:19:54.917Z,1.66
2022-11-18T14:22:26.959Z,2.97
2022-11-18T14:24:58.527Z,2.09
2022-11-18T14:27:37.772Z,1.77
2022-11-18T14:30:35.205Z,1.94
2022-11-18T14:33:24.302Z,2.20
2022-11-18T14:35:57.106Z,1.09
2022-11-18T14:41:50.381Z,1.54
2022-11-18T14:44:23.029Z,2.32
2022-11-18T14:46:55.997Z,1.36
2022-11-18T14:49:28.287Z,1.08
2022-11-18T14:51:57.413Z,1.90
2022-11-18T14:54:28.077Z,1.29
2022-11-18T15:01:31.072Z,1.22
2022-11-18T15:04:00.289Z,0.91
2022-11-18T15:06:28.919Z,0.89
2022-11-18T15:08:57.930Z,0.68
2022-11-18T15:11:26.539Z,1.09
2022-11-18T15:13:55.502Z,1.51
2022-11-18T15:16:27.241Z,0.86
2022-11-18T15:23:29.984Z,0.07
2022-11-18T15:25:58.649Z,1.10
2022-11-18T15:28:27.713Z,2.05
2022-11-18T15:30:56.434Z,1.72
2022-11-18T15:33:25.335Z,0.44
2022-11-18T15:35:53.974Z,1.92
2022-11-18T15:38:22.927Z,0.50
2022-11-18T15:40:52.869Z,1.14
2022-11-18T15:43:21.713Z,1.00
2022-11-18T15:45:57.821Z,0.79
2022-11-18T15:48:26.853Z,0.45
2022-11-18T15:50:55.645Z,1.64
2022-11-18T15:53:24.472Z,0.78
2022-11-18T15:56:14.273Z,1.06
2022-11-18T15:58:43.326Z,0.22
2022-11-18T16:01:12.118Z,0.28
2022-11-18T16:03:41.072Z,-0.11
2022-11-18T16:06:09.937Z,0.16
2022-11-18T16:08:38.863Z,-0.28
2022-11-18T16:11:29.902Z,-0.24
2022-11-18T16:14:02.993Z,0.07
2022-11-18T16:16:32.637Z,0.81
2022-11-18T16:19:05.433Z,0.42
2022-11-18T16:21:38.462Z,0.85
2022-11-18T16:24:11.845Z,0.66
2022-11-18T16:26:41.901Z,0.42
2022-11-18T16:29:12.967Z,0.62
2022-11-18T16:31:41.651Z,0.93
2022-11-18T16:34:13.385Z,1.01
2022-11-18T16:36:45.006Z,0.65
2022-11-18T16:39:17.133Z,0.49
2022-11-18T16:41:47.823Z,0.08
2022-11-18T16:44:17.776Z,-0.46
2022-11-18T16:46:49.695Z,-0.17
2022-11-18T16:49:22.222Z,-0.17
2022-11-18T16:51:53.464Z,0.11
2022-11-18T16:54:24.877Z,-0.28
2022-11-18T16:56:58.471Z,-0.02
2022-11-18T16:59:31.228Z,-0.39
2022-11-18T17:02:02.047Z,0.43
2022-11-18T17:04:35.268Z,0.67
2022-11-18T17:07:04.034Z,0.85
2022-11-18T17:09:33.121Z,-0.38
2022-11-18T17:12:03.787Z,-0.65
2022-11-18T17:14:32.972Z,-0.87
2022-11-18T17:17:01.660Z,-0.69
2022-11-18T17:19:30.504Z,0.20
2022-11-18T17:21:59.466Z,-0.33
2022-11-18T17:24:28.681Z,0.53
2022-11-18T17:26:57.286Z,-0.30
2022-11-18T17:29:27.528Z,-0.20
2022-11-18T17:31:56.258Z,0.86
2022-11-18T17:34:25.211Z,0.38
2022-11-18T17:36:53.823Z,0.33
2022-11-18T17:39:22.706Z,0.35
2022-11-18T17:42:08.951Z,-0.83
2022-11-18T17:44:39.296Z,0.07
2022-11-18T17:47:08.457Z,0.50
2022-11-18T17:49:37.353Z,-0.26
2022-11-18T17:52:06.537Z,-0.86
2022-11-18T17:54:35.472Z,-0.46
2022-11-18T17:57:04.235Z,-0.38
2022-11-18T18:04:07.034Z,-0.60
2022-11-18T18:06:36.022Z,-0.73
2022-11-18T18:09:05.202Z,-0.47
2022-11-18T18:11:34.066Z,-0.04
2022-11-18T18:14:13.892Z,-0.39
2022-11-18T18:16:46.507Z,-0.30
2022-11-18T18:19:19.301Z,-0.12
2022-11-18T18:21:48.960Z,0.05
2022-11-18T18:24:20.450Z,0.22
2022-11-18T18:26:50.038Z,0.22
2022-11-18T18:29:18.629Z,0.07
2022-11-18T18:31:47.532Z,-0.57
2022-11-18T18:34:17.874Z,0.29
2022-11-18T18:36:46.992Z,-0.65
2022-11-18T18:39:15.571Z,-0.60
2022-11-18T18:41:44.531Z,0.06
2022-11-18T18:44:18.361Z,0.26
2022-11-18T18:46:46.788Z,-0.55
2022-11-18T18:49:20.469Z,-0.71
2022-11-18T18:51:50.307Z,-1.05
2022-11-18T18:54:21.050Z,-1.10
2022-11-18T18:56:50.207Z,-0.37
2022-11-18T18:59:18.851Z,-0.93
2022-11-18T19:01:47.754Z,-0.80
2022-11-18T19:04:18.077Z,-0.42
2022-11-18T19:07:04.131Z,-0.56
2022-11-18T19:09:36.410Z,0.84
2022-11-18T19:12:23.441Z,0.72
2022-11-18T19:14:52.208Z,-0.65
2022-11-18T19:17:21.737Z,-0.92
2022-11-18T19:20:09.319Z,-1.07
2022-11-18T19:22:41.148Z,-0.30
2022-11-18T19:25:10.966Z,-0.83
2022-11-18T19:27:40.560Z,-0.91
2022-11-18T19:30:11.685Z,-0.54
2022-11-18T19:32:42.625Z,-0.83
2022-11-18T19:35:13.013Z,-0.39
2022-11-18T19:37:42.522Z,-0.66
2022-11-18T19:40:12.784Z,-0.48
2022-11-18T19:47:12.332Z,0.88
2022-11-18T19:49:41.205Z,0.35
2022-11-18T19:52:11.269Z,0.72
2022-11-18T19:54:41.023Z,0.96
2022-11-18T19:57:09.862Z,0.40
2022-11-18T19:59:39.623Z,-0.81
2022-11-18T20:02:10.065Z,-0.87
2022-11-18T20:04:39.611Z,-1.16
2022-11-18T20:07:08.403Z,-0.82
2022-11-18T20:09:38.649Z,-0.93
2022-11-18T20:12:07.601Z,-0.49
2022-11-18T20:14:36.525Z,-0.40
2022-11-18T20:17:05.182Z,-0.99
2022-11-18T20:19:34.063Z,0.67
2022-11-18T20:22:02.689Z,-0.33
2022-11-18T20:24:31.612Z,-0.87
2022-11-18T20:27:01.549Z,-0.60
2022-11-18T20:29:30.404Z,-0.64
2022-11-18T20:31:59.159Z,-0.28
2022-11-18T20:34:28.208Z,-0.26
2022-11-18T20:36:56.857Z,-0.91
2022-11-18T20:39:26.195Z,-0.27
2022-11-18T20:42:12.406Z,0.43
2022-11-18T20:44:42.675Z,-0.07
2022-11-18T20:47:11.305Z,-0.73
2022-11-18T20:49:40.163Z,-0.67
2022-11-18T20:52:08.779Z,-0.65
2022-11-18T20:54:37.680Z,-0.51
2022-11-18T20:57:06.241Z,0.24
2022-11-18T20:59:35.101Z,-0.22
2022-11-18T21:02:05.028Z,-0.27
2022-11-18T21:04:33.908Z,0.10
2022-11-18T21:07:02.607Z,-1.04
2022-11-18T21:09:32.944Z,0.03
2022-11-18T21:12:01.852Z,-1.11
2022-11-18T21:14:29.811Z,-1.30
2022-11-18T21:17:01.755Z,-0.96
2022-11-18T21:19:33.945Z,-1.18
2022-11-18T21:22:01.560Z,-0.40
2022-11-18T21:24:32.074Z,0.32
2022-11-18T21:27:02.969Z,0.46
2022-11-18T21:29:33.545Z,0.02
2022-11-18T21:32:02.444Z,-0.92
2022-11-18T21:34:32.732Z,-0.57
2022-11-18T21:37:01.329Z,-0.87
2022-11-18T21:39:30.207Z,0.32
2022-11-18T21:41:58.913Z,-0.16
2022-11-18T21:44:28.836Z,-0.71
2022-11-18T21:46:58.006Z,-1.01
2022-11-18T21:49:26.941Z,-0.15
2022-11-18T21:51:56.926Z,-1.14
2022-11-18T21:54:25.960Z,-1.33
2022-11-18T21:56:54.566Z,-1.25
2022-11-18T21:59:23.787Z,-0.99
2022-11-18T22:01:52.385Z,-0.13
2022-11-18T22:04:38.783Z,-0.80
2022-11-18T22:07:08.816Z,-0.90
2022-11-18T22:09:37.741Z,-0.67
2022-11-18T22:12:07.954Z,-0.62
2022-11-18T22:14:37.285Z,-0.12
2022-11-18T22:17:06.604Z,0.49
2022-11-18T22:19:35.983Z,0.69
2022-11-18T22:22:04.561Z,0.72
2022-11-18T22:24:34.780Z,-0.72
2022-11-18T22:27:08.400Z,-0.89
2022-11-18T22:29:39.946Z,-1.50
2022-11-18T22:32:08.509Z,-1.37
2022-11-18T22:34:37.407Z,-1.18
2022-11-18T22:37:05.988Z,-0.91
2022-11-18T22:39:36.143Z,-0.63
2022-11-18T22:42:22.324Z,-1.35
2022-11-18T22:44:51.169Z,-1.70
2022-11-18T22:47:20.090Z,-1.58
2022-11-18T22:49:52.169Z,-1.42
2022-11-18T22:52:23.656Z,-1.57
2022-11-18T22:54:53.836Z,-0.92
2022-11-18T22:57:22.381Z,-1.14
2022-11-18T22:59:52.342Z,-0.96
2022-11-18T23:02:20.900Z,-0.74
2022-11-18T23:04:49.773Z,-0.18
2022-11-18T23:07:18.515Z,0.49
2022-11-18T23:09:47.458Z,-0.01
2022-11-18T23:12:34.999Z,-0.53
2022-11-18T23:15:04.110Z,-0.87
2022-11-18T23:17:32.667Z,-0.18
2022-11-18T23:20:01.613Z,-1.30
2022-11-18T23:22:30.188Z,-0.39
2022-11-18T23:24:59.034Z,-0.13
2022-11-18T23:27:29.339Z,-0.94
2022-11-18T23:29:58.256Z,-1.14
2022-11-18T23:32:26.791Z,-1.30
2022-11-18T23:34:55.715Z,-1.41
2022-11-18T23:37:24.315Z,-0.87
2022-11-18T23:39:53.187Z,-1.48
2022-11-18T23:42:21.785Z,-0.76
2022-11-18T23:44:52.889Z,-0.14
2022-11-18T23:47:21.497Z,-0.50
2022-11-18T23:49:50.458Z,-0.75
2022-11-18T23:52:19.015Z,-0.18
2022-11-18T23:54:49.814Z,0.49
2022-11-18T23:57:18.682Z,-0.91
2022-11-18T23:59:47.597Z,0.24
